createdAt,value
2023-12-07T00:02:06.116Z,10.13
2023-12-07T00:04:53.835Z,11.13
2023-12-07T00:07:41.600Z,11.50
2023-12-07T00:10:29.205Z,10.68
2023-12-07T00:13:16.555Z,11.70
2023-12-07T00:16:04.297Z,10.90
2023-12-07T00:18:51.727Z,11.98
2023-12-07T00:21:39.098Z,12.00
2023-12-07T00:24:26.452Z,10.77
2023-12-07T00:27:13.718Z,10.20
2023-12-07T00:30:00.960Z,11.57
2023-12-07T00:32:48.295Z,11.38
2023-12-07T00:35:35.713Z,11.88
2023-12-07T00:38:23.145Z,11.90
2023-12-07T00:41:10.679Z,10.48
2023-12-07T00:43:58.010Z,12.32
2023-12-07T00:46:45.356Z,12.10
2023-12-07T00:49:32.700Z,10.60
2023-12-07T00:52:19.987Z,10.68
2023-12-07T00:55:11.738Z,11.93
2023-12-07T00:58:02.583Z,12.30
2023-12-07T01:00:50.351Z,11.85
2023-12-07T01:03:37.669Z,12.07
2023-12-07T01:06:25.003Z,11.60
2023-12-07T01:09:14.597Z,10.98
2023-12-07T01:12:01.865Z,13.07
2023-12-07T01:14:49.165Z,11.38
2023-12-07T01:17:36.878Z,11.82
2023-12-07T01:20:24.077Z,11.88
2023-12-07T01:23:13.847Z,11.52
2023-12-07T01:26:03.673Z,13.13
2023-12-07T01:28:51.015Z,12.73
2023-12-07T01:31:38.278Z,12.82
2023-12-07T01:34:25.562Z,11.90
2023-12-07T01:37:12.996Z,12.55
2023-12-07T01:40:00.632Z,11.90
2023-12-07T01:42:52.597Z,12.13
2023-12-07T01:45:39.929Z,12.00
2023-12-07T01:48:27.783Z,12.25
2023-12-07T01:51:16.155Z,12.00
2023-12-07T01:54:03.654Z,12.10
2023-12-07T01:56:52.258Z,11.95
2023-12-07T01:59:39.635Z,11.65
2023-12-07T02:02:27.366Z,11.45
2023-12-07T02:05:15.820Z,11.18
2023-12-07T02:08:03.221Z,10.45
2023-12-07T02:10:50.976Z,12.10
2023-12-07T02:13:40.153Z,11.32
2023-12-07T02:16:54.022Z,11.32
2023-12-07T02:20:01.134Z,10.88
2023-12-07T02:22:53.574Z,10.93
2023-12-07T02:25:54.239Z,11.05
2023-12-07T02:28:41.534Z,10.43
2023-12-07T02:31:29.453Z,11.65
2023-12-07T02:34:17.106Z,10.85
2023-12-07T02:37:05.155Z,12.15
2023-12-07T02:39:53.433Z,11.98
2023-12-07T02:42:42.195Z,12.05
2023-12-07T02:45:30.319Z,10.25
2023-12-07T02:48:19.036Z,11.63
2023-12-07T02:51:06.418Z,11.70
2023-12-07T02:53:53.624Z,10.75
2023-12-07T02:56:41.144Z,11.02
2023-12-07T02:59:29.487Z,12.23
2023-12-07T03:02:16.764Z,11.60
2023-12-07T03:05:05.129Z,11.13
2023-12-07T03:07:53.121Z,11.02
2023-12-07T03:10:40.427Z,10.98
2023-12-07T03:13:27.746Z,10.85
2023-12-07T03:16:15.073Z,11.40
2023-12-07T03:19:03.157Z,10.82
2023-12-07T03:21:50.904Z,10.98
2023-12-07T03:24:39.143Z,11.88
2023-12-07T03:27:26.469Z,12.05
2023-12-07T03:30:14.180Z,11.77
2023-12-07T03:33:01.772Z,9.98
2023-12-07T03:35:49.509Z,10.75
2023-12-07T03:38:36.670Z,11.30
2023-12-07T03:41:24.047Z,10.18
2023-12-07T03:44:11.608Z,9.75
2023-12-07T03:46:58.872Z,9.65
2023-12-07T03:49:46.303Z,9.20
2023-12-07T03:52:33.556Z,10.35
2023-12-07T03:55:21.041Z,9.05
2023-12-07T03:58:08.334Z,9.60
2023-12-07T04:00:55.593Z,8.82
2023-12-07T04:03:42.994Z,9.23
2023-12-07T04:06:30.290Z,9.55
2023-12-07T04:09:17.648Z,9.65
2023-12-07T04:12:05.060Z,10.48
2023-12-07T04:14:52.810Z,9.10
2023-12-07T04:17:40.099Z,9.73
2023-12-07T04:20:27.444Z,9.75
2023-12-07T04:23:14.649Z,10.63
2023-12-07T04:26:01.958Z,9.98
2023-12-07T04:28:49.306Z,10.18
2023-12-07T04:31:37.473Z,10.13
2023-12-07T04:34:24.692Z,10.05
2023-12-07T04:37:12.021Z,9.70
2023-12-07T04:40:00.111Z,9.57
2023-12-07T04:42:47.463Z,8.35
2023-12-07T04:45:35.431Z,10.55
2023-12-07T04:48:22.717Z,10.38
2023-12-07T04:51:10.280Z,11.48
2023-12-07T04:54:06.001Z,9.98
2023-12-07T04:57:00.232Z,9.77
2023-12-07T04:59:48.148Z,10.63
2023-12-07T05:02:35.564Z,9.80
2023-12-07T05:05:22.950Z,9.40
2023-12-07T05:08:10.371Z,9.68
2023-12-07T05:10:57.653Z,10.38
2023-12-07T05:13:44.798Z,9.88
2023-12-07T05:16:32.242Z,9.95
2023-12-07T05:19:26.682Z,10.18
2023-12-07T05:22:15.716Z,10.43
2023-12-07T05:25:03.115Z,10.48
2023-12-07T05:27:50.416Z,11.02
2023-12-07T05:30:37.813Z,10.68
2023-12-07T05:33:26.191Z,11.77
2023-12-07T05:36:13.725Z,13.18
2023-12-07T05:39:01.197Z,11.65
2023-12-07T05:41:48.449Z,11.68
2023-12-07T05:44:35.689Z,11.20
2023-12-07T05:47:24.450Z,12.15
2023-12-07T05:50:12.049Z,10.40
2023-12-07T05:53:00.710Z,10.00
2023-12-07T05:55:48.379Z,9.40
2023-12-07T05:58:35.850Z,10.05
2023-12-07T06:01:23.258Z,9.77
2023-12-07T06:04:11.623Z,9.15
2023-12-07T06:06:58.950Z,9.65
2023-12-07T06:09:46.346Z,9.38
2023-12-07T06:12:34.110Z,9.48
2023-12-07T06:15:21.360Z,10.00
2023-12-07T06:18:09.219Z,9.10
2023-12-07T06:20:56.832Z,9.43
2023-12-07T06:23:44.165Z,9.43
2023-12-07T06:26:31.467Z,11.27
2023-12-07T06:29:19.811Z,12.30
2023-12-07T06:32:07.369Z,10.88
2023-12-07T06:34:54.685Z,11.00
2023-12-07T06:37:43.379Z,10.13
2023-12-07T06:40:31.279Z,8.68
2023-12-07T06:43:18.645Z,10.80
2023-12-07T06:46:12.919Z,10.30
2023-12-07T06:49:20.851Z,11.07
2023-12-07T06:52:19.292Z,10.25
2023-12-07T06:55:10.784Z,11.02
2023-12-07T06:58:02.688Z,11.32
2023-12-07T07:00:53.270Z,10.70
2023-12-07T07:03:40.626Z,10.80
2023-12-07T07:06:27.845Z,11.88
2023-12-07T07:09:17.083Z,12.10
2023-12-07T07:12:06.242Z,11.43
2023-12-07T07:14:54.392Z,10.55
2023-12-07T07:17:42.144Z,11.93
2023-12-07T07:20:29.529Z,10.73
2023-12-07T07:23:16.741Z,10.35
2023-12-07T07:26:04.363Z,11.40
2023-12-07T07:28:52.829Z,11.32
2023-12-07T07:31:40.956Z,10.38
2023-12-07T07:34:28.443Z,11.30
2023-12-07T07:37:15.726Z,10.93
2023-12-07T07:40:07.752Z,10.73
2023-12-07T07:42:55.119Z,9.00
2023-12-07T07:45:42.458Z,8.75
2023-12-07T07:48:29.742Z,9.25
2023-12-07T07:51:17.047Z,9.77
2023-12-07T07:54:04.609Z,9.38
2023-12-07T07:56:52.016Z,10.10
2023-12-07T07:59:39.245Z,10.20
2023-12-07T08:02:26.667Z,10.25
2023-12-07T08:05:13.998Z,9.95
2023-12-07T08:08:01.219Z,9.23
2023-12-07T08:10:54.838Z,7.90
2023-12-07T08:13:43.863Z,8.70
2023-12-07T08:16:31.201Z,9.18
2023-12-07T08:19:18.733Z,9.57
2023-12-07T08:22:06.066Z,10.30
2023-12-07T08:25:01.047Z,9.68
2023-12-07T08:27:56.002Z,9.55
2023-12-07T08:30:43.191Z,8.60
2023-12-07T08:33:31.162Z,8.52
2023-12-07T08:36:18.468Z,8.88
2023-12-07T08:39:10.930Z,11.05
2023-12-07T08:41:58.512Z,10.40
2023-12-07T08:44:45.940Z,8.93
2023-12-07T08:47:33.345Z,9.40
2023-12-07T08:50:20.799Z,8.82
2023-12-07T08:53:08.037Z,8.88
2023-12-07T08:55:55.585Z,8.93
2023-12-07T08:58:45.118Z,9.98
2023-12-07T09:01:34.328Z,8.02
2023-12-07T09:04:21.866Z,8.98
2023-12-07T09:07:10.476Z,8.30
2023-12-07T09:09:57.919Z,7.80
2023-12-07T09:12:45.131Z,7.57
2023-12-07T09:15:32.700Z,7.10
2023-12-07T09:18:20.022Z,7.03
2023-12-07T09:21:07.651Z,7.32
2023-12-07T09:23:54.942Z,7.13
2023-12-07T09:26:42.183Z,6.15
2023-12-07T09:29:29.374Z,6.30
2023-12-07T09:32:17.539Z,5.03
2023-12-07T09:37:55.972Z,5.13
2023-12-07T09:40:43.665Z,4.88
2023-12-07T09:43:31.084Z,5.28
2023-12-07T09:46:19.452Z,5.13
2023-12-07T10:06:04.771Z,4.18
2023-12-07T10:08:55.274Z,4.38
2023-12-07T10:11:44.505Z,4.82
2023-12-07T10:14:33.635Z,4.63
2023-12-07T10:17:21.150Z,4.05
2023-12-07T10:20:10.151Z,4.40
2023-12-07T10:23:09.728Z,3.97
2023-12-07T10:25:57.058Z,4.55
2023-12-07T10:28:44.430Z,3.90
2023-12-07T10:31:32.247Z,4.45
2023-12-07T10:34:23.042Z,4.53
2023-12-07T10:37:10.508Z,4.55
2023-12-07T10:39:57.779Z,4.90
2023-12-07T10:42:49.056Z,4.60
2023-12-07T10:45:38.493Z,4.93
2023-12-07T10:48:33.475Z,5.22
2023-12-07T10:51:42.458Z,4.45
2023-12-07T10:54:42.568Z,4.28
2023-12-07T10:57:33.935Z,4.63
2023-12-07T11:00:36.902Z,4.30
2023-12-07T11:03:30.918Z,3.90
2023-12-07T11:06:19.572Z,4.20
2023-12-07T11:09:12.960Z,3.88
2023-12-07T11:12:49.438Z,3.65
2023-12-07T11:15:36.934Z,3.63
2023-12-07T11:18:28.207Z,3.80
2023-12-07T11:21:15.886Z,3.75
2023-12-07T11:24:05.389Z,4.45
2023-12-07T11:26:53.795Z,3.78
2023-12-07T11:29:41.514Z,3.47
2023-12-07T11:32:29.462Z,4.05
2023-12-07T11:35:17.875Z,3.85
2023-12-07T11:38:10.671Z,3.67
2023-12-07T11:40:58.410Z,3.75
2023-12-07T11:43:47.013Z,3.97
2023-12-07T11:46:35.903Z,4.22
2023-12-07T11:49:29.184Z,3.45
2023-12-07T11:52:23.084Z,3.72
2023-12-07T11:55:13.134Z,3.20
2023-12-07T11:58:00.534Z,3.20
2023-12-07T12:00:49.217Z,2.60
2023-12-07T12:03:37.610Z,2.67
2023-12-07T12:06:25.532Z,2.70
2023-12-07T12:09:23.764Z,3.25
2023-12-07T12:12:17.573Z,3.30
2023-12-07T12:15:05.373Z,3.45
2023-12-07T12:17:52.872Z,3.40
2023-12-07T12:20:40.968Z,3.78
2023-12-07T12:23:28.276Z,2.65
2023-12-07T12:26:17.856Z,3.60
2023-12-07T12:29:06.912Z,3.38
2023-12-07T12:31:54.994Z,2.88
2023-12-07T12:34:42.840Z,2.92
2023-12-07T12:37:33.691Z,3.53
2023-12-07T12:40:23.612Z,3.47
2023-12-07T12:43:11.921Z,3.30
2023-12-07T12:46:05.403Z,2.90
2023-12-07T12:48:58.424Z,2.58
2023-12-07T12:51:46.071Z,2.38
2023-12-07T12:54:36.730Z,2.95
2023-12-07T12:57:25.017Z,2.30
2023-12-07T13:00:13.920Z,2.30
2023-12-07T13:03:06.080Z,2.45
2023-12-07T13:05:54.645Z,2.00
2023-12-07T13:08:44.851Z,2.38
2023-12-07T13:11:32.173Z,2.17
2023-12-07T13:14:20.340Z,2.35
2023-12-07T13:17:09.094Z,2.83
2023-12-07T13:19:56.545Z,2.70
2023-12-07T13:22:47.285Z,2.70
2023-12-07T13:25:35.522Z,3.20
2023-12-07T13:28:24.488Z,2.83
2023-12-07T13:31:11.773Z,3.00
2023-12-07T13:34:02.510Z,2.78
2023-12-07T13:36:53.924Z,2.33
2023-12-07T13:39:44.031Z,2.50
2023-12-07T13:42:32.291Z,2.63
2023-12-07T13:45:20.886Z,2.90
2023-12-07T13:48:08.120Z,2.50
2023-12-07T13:50:55.819Z,2.13
2023-12-07T13:53:43.273Z,2.58
2023-12-07T13:56:30.578Z,2.03
2023-12-07T13:59:18.376Z,1.95
2023-12-07T14:02:05.641Z,2.00
2023-12-07T14:04:53.150Z,1.92
2023-12-07T14:07:40.447Z,1.95
2023-12-07T14:10:38.185Z,2.47
2023-12-07T14:13:26.651Z,2.13
2023-12-07T14:16:19.105Z,2.35
2023-12-07T14:22:02.604Z,2.55
2023-12-07T14:24:49.909Z,2.75
2023-12-07T14:27:37.314Z,2.78
2023-12-07T14:30:24.584Z,2.65
2023-12-07T14:33:12.758Z,3.33
2023-12-07T14:36:01.195Z,3.22
2023-12-07T14:38:48.638Z,2.63
2023-12-07T14:41:35.961Z,2.80
2023-12-07T14:44:29.252Z,2.80
2023-12-07T14:47:17.288Z,2.72
2023-12-07T14:50:05.762Z,2.55
2023-12-07T14:52:53.457Z,2.80
2023-12-07T14:55:40.945Z,3.20
2023-12-07T14:58:28.841Z,3.10
2023-12-07T15:01:16.158Z,3.95
2023-12-07T15:04:03.661Z,3.63
2023-12-07T15:06:51.744Z,3.47
2023-12-07T15:09:39.283Z,3.70
2023-12-07T15:12:28.805Z,3.85
2023-12-07T15:15:16.921Z,3.30
2023-12-07T15:18:04.810Z,3.08
2023-12-07T15:20:52.214Z,3.42
2023-12-07T15:23:41.023Z,3.72
2023-12-07T15:26:28.480Z,4.25
2023-12-07T15:29:15.974Z,4.03
2023-12-07T15:32:04.220Z,4.30
2023-12-07T15:34:51.969Z,4.15
2023-12-07T15:37:39.338Z,4.47
2023-12-07T15:40:26.657Z,3.33
2023-12-07T15:43:14.170Z,4.25
2023-12-07T15:46:01.549Z,4.50
2023-12-07T15:48:48.891Z,4.10
2023-12-07T15:51:37.175Z,4.50
2023-12-07T15:54:33.974Z,4.72
2023-12-07T15:57:26.040Z,4.30
2023-12-07T16:00:14.510Z,4.18
2023-12-07T16:03:03.663Z,3.95
2023-12-07T16:05:51.079Z,3.42
2023-12-07T16:08:38.512Z,2.97
2023-12-07T16:11:25.856Z,4.13
2023-12-07T16:14:17.640Z,4.75
2023-12-07T16:17:08.964Z,4.07
2023-12-07T16:19:56.524Z,4.88
2023-12-07T16:22:46.848Z,5.28
2023-12-07T16:25:35.179Z,4.97
2023-12-07T16:28:22.533Z,5.22
2023-12-07T16:31:09.744Z,5.72
2023-12-07T16:33:59.755Z,6.13
2023-12-07T16:36:48.166Z,5.72
2023-12-07T16:39:35.484Z,6.05
2023-12-07T16:42:22.956Z,8.20
2023-12-07T16:45:11.615Z,6.82
2023-12-07T16:47:59.007Z,7.68
2023-12-07T16:50:46.830Z,8.18
2023-12-07T16:53:38.037Z,7.85
2023-12-07T16:59:12.524Z,6.68
2023-12-07T17:01:59.861Z,6.32
2023-12-07T17:04:47.144Z,6.30
2023-12-07T17:07:34.447Z,7.88
2023-12-07T17:10:21.702Z,7.30
2023-12-07T17:13:08.923Z,7.00
2023-12-07T17:15:59.320Z,6.97
2023-12-07T17:18:47.267Z,7.38
2023-12-07T17:21:34.617Z,5.45
2023-12-07T17:24:22.234Z,6.45
2023-12-07T17:27:09.814Z,6.70
2023-12-07T17:29:57.111Z,5.88
2023-12-07T17:32:44.467Z,6.07
2023-12-07T17:35:31.876Z,5.95
2023-12-07T17:38:19.940Z,5.60
2023-12-07T17:41:07.736Z,5.47
2023-12-07T17:43:55.268Z,6.25
2023-12-07T17:46:42.559Z,6.57
2023-12-07T17:49:30.811Z,6.30
2023-12-07T17:52:18.073Z,6.18
2023-12-07T17:55:05.907Z,6.30
2023-12-07T17:57:54.318Z,6.32
2023-12-07T18:00:42.606Z,7.78
2023-12-07T18:03:30.234Z,6.43
2023-12-07T18:06:18.121Z,6.43
2023-12-07T18:09:05.812Z,6.25
2023-12-07T18:11:54.028Z,7.43
2023-12-07T18:14:41.398Z,5.57
2023-12-07T18:17:29.279Z,8.27
2023-12-07T18:20:17.271Z,7.20
2023-12-07T18:23:04.731Z,7.25
2023-12-07T18:25:52.017Z,6.97
2023-12-07T18:28:39.707Z,6.25
2023-12-07T18:31:27.138Z,7.55
2023-12-07T18:34:14.939Z,7.70
2023-12-07T18:37:03.647Z,6.05
2023-12-07T18:39:51.179Z,5.22
2023-12-07T18:42:39.084Z,6.50
2023-12-07T18:45:26.524Z,7.80
2023-12-07T18:48:13.960Z,6.90
2023-12-07T18:51:01.472Z,6.30
2023-12-07T18:53:49.031Z,7.25
2023-12-07T18:56:36.571Z,7.40
2023-12-07T18:59:24.086Z,6.70
2023-12-07T19:02:12.186Z,6.13
2023-12-07T19:04:59.675Z,6.72
2023-12-07T19:07:47.088Z,7.13
2023-12-07T19:10:34.360Z,5.00
2023-12-07T19:13:21.731Z,5.40
2023-12-07T19:16:10.920Z,6.72
2023-12-07T19:18:58.439Z,5.03
2023-12-07T19:21:48.709Z,5.25
2023-12-07T19:24:35.989Z,4.70
2023-12-07T19:27:23.656Z,5.13
2023-12-07T19:30:11.655Z,3.47
2023-12-07T19:33:03.579Z,5.20
2023-12-07T19:35:51.106Z,4.85
2023-12-07T19:38:38.612Z,4.57
2023-12-07T19:41:25.950Z,4.35
2023-12-07T19:44:14.154Z,4.97
2023-12-07T19:47:01.484Z,4.43
2023-12-07T19:49:49.748Z,4.53
2023-12-07T19:52:37.624Z,4.38
2023-12-07T19:55:24.892Z,6.00
2023-12-07T19:58:13.787Z,5.38
2023-12-07T20:01:01.451Z,4.70
2023-12-07T20:03:49.212Z,4.00
2023-12-07T20:06:39.434Z,5.60
2023-12-07T20:09:27.307Z,5.50
2023-12-07T20:12:14.882Z,4.97
2023-12-07T20:15:04.382Z,4.90
2023-12-07T20:17:51.696Z,4.93
2023-12-07T20:20:39.011Z,4.82
2023-12-07T20:23:26.362Z,6.15
2023-12-07T20:26:16.689Z,5.10
2023-12-07T20:29:05.237Z,3.80
2023-12-07T20:31:53.023Z,4.38
2023-12-07T20:34:40.588Z,5.60
2023-12-07T20:37:28.466Z,5.22
2023-12-07T20:40:16.533Z,5.32
2023-12-07T20:43:03.765Z,5.82
2023-12-07T20:45:51.173Z,5.18
2023-12-07T20:48:39.800Z,5.75
2023-12-07T20:51:27.397Z,5.00
2023-12-07T20:54:14.728Z,5.32
2023-12-07T20:57:02.217Z,3.78
2023-12-07T20:59:49.698Z,5.70
2023-12-07T21:02:37.329Z,6.68
2023-12-07T21:05:25.164Z,5.75
2023-12-07T21:08:13.136Z,5.65
2023-12-07T21:11:00.636Z,5.50
2023-12-07T21:13:48.162Z,6.28
2023-12-07T21:16:36.225Z,4.97
2023-12-07T21:19:25.365Z,4.95
2023-12-07T21:22:13.932Z,7.00
2023-12-07T21:25:01.311Z,4.78
2023-12-07T21:27:48.675Z,5.57
2023-12-07T21:30:40.008Z,5.38
2023-12-07T21:33:27.472Z,6.03
2023-12-07T21:36:14.838Z,5.13
2023-12-07T21:39:02.184Z,6.03
2023-12-07T21:41:50.080Z,3.83
2023-12-07T21:44:39.693Z,5.45
2023-12-07T21:47:27.402Z,5.90
2023-12-07T21:50:14.973Z,5.50
2023-12-07T21:53:02.209Z,5.05
2023-12-07T21:55:51.763Z,4.60
2023-12-07T21:58:39.555Z,5.55
2023-12-07T22:01:27.145Z,5.80
2023-12-07T22:04:15.663Z,5.40
2023-12-07T22:07:03.363Z,5.03
2023-12-07T22:09:50.620Z,5.70
2023-12-07T22:12:37.948Z,4.85
2023-12-07T22:15:25.390Z,5.18
2023-12-07T22:18:12.787Z,5.63
2023-12-07T22:21:00.110Z,5.18
2023-12-07T22:23:47.817Z,6.10
2023-12-07T22:26:35.243Z,5.97
2023-12-07T22:29:23.052Z,5.53
2023-12-07T22:32:10.467Z,6.38
2023-12-07T22:34:57.890Z,5.70
2023-12-07T22:37:45.251Z,5.53
2023-12-07T22:40:34.302Z,6.22
2023-12-07T22:43:21.509Z,6.55
2023-12-07T22:46:08.795Z,5.68
2023-12-07T22:48:56.276Z,5.60
2023-12-07T22:51:43.768Z,6.60
2023-12-07T22:54:31.583Z,6.72
2023-12-07T22:57:18.874Z,6.13
2023-12-07T23:00:10.150Z,6.80
2023-12-07T23:02:57.751Z,5.88
2023-12-07T23:05:45.165Z,6.22
2023-12-07T23:08:32.715Z,6.63
2023-12-07T23:11:20.261Z,6.35
2023-12-07T23:14:07.904Z,5.97
2023-12-07T23:16:55.120Z,5.40
2023-12-07T23:19:42.696Z,6.15
2023-12-07T23:22:30.110Z,6.10
2023-12-07T23:25:18.667Z,6.55
2023-12-07T23:28:05.935Z,6.53
2023-12-07T23:30:53.384Z,5.55
2023-12-07T23:33:40.938Z,5.15
2023-12-07T23:36:28.276Z,4.82
2023-12-07T23:39:15.670Z,7.13
2023-12-07T23:42:03.237Z,5.88
2023-12-07T23:44:50.886Z,5.78
2023-12-07T23:47:39.118Z,6.47
2023-12-07T23:50:26.470Z,4.70
2023-12-07T23:53:13.711Z,6.10
2023-12-07T23:56:01.011Z,6.28
2023-12-07T23:58:48.297Z,5.22
